createdAt,value
2023-05-11T00:00:37.534Z,98579.81
2023-05-11T00:03:04.630Z,98578.78
2023-05-11T00:05:47.252Z,98581.84
2023-05-11T00:08:29.922Z,98572.47
2023-05-11T00:11:21.663Z,98575.56
2023-05-11T00:14:09.871Z,98577.47
2023-05-11T00:16:36.831Z,98572.94
2023-05-11T00:19:05.446Z,98579.84
2023-05-11T00:21:32.570Z,98569.81
2023-05-11T00:23:59.494Z,98579.94
2023-05-11T00:26:27.026Z,98565.38
2023-05-11T00:28:54.010Z,98573.44
2023-05-11T00:31:21.048Z,98568.38
2023-05-11T00:33:48.006Z,98557.50
2023-05-11T00:36:15.379Z,98540.38
2023-05-11T00:38:42.315Z,98578.84
2023-05-11T00:41:09.336Z,98573.97
2023-05-11T00:43:36.583Z,98572.16
2023-05-11T00:46:03.634Z,98577.38
2023-05-11T00:48:31.030Z,98571.28
2023-05-11T00:51:00.240Z,98573.97
2023-05-11T00:53:27.458Z,98565.25
2023-05-11T00:55:54.763Z,98576.47
2023-05-11T00:58:22.145Z,98575.53
2023-05-11T01:00:49.182Z,98576.84
2023-05-11T01:03:17.486Z,98564.06
2023-05-11T01:06:26.586Z,98579.00
2023-05-11T01:09:28.281Z,98582.06
2023-05-11T01:12:30.902Z,98578.59
2023-05-11T01:15:22.547Z,98578.22
2023-05-11T01:18:38.540Z,98587.16
2023-05-11T01:21:07.302Z,98581.66
2023-05-11T01:23:58.841Z,98577.97
2023-05-11T01:26:37.578Z,98575.94
2023-05-11T01:29:35.168Z,98585.69
2023-05-11T01:32:06.690Z,98583.88
2023-05-11T01:34:39.708Z,98581.03
2023-05-11T01:37:36.827Z,98582.38
2023-05-11T01:40:12.811Z,98586.00
2023-05-11T01:42:49.015Z,98578.28
2023-05-11T01:45:17.532Z,98584.31
2023-05-11T01:47:49.060Z,98574.91
2023-05-11T01:50:18.649Z,98579.91
2023-05-11T01:52:49.118Z,98584.97
2023-05-11T01:55:20.696Z,98579.94
2023-05-11T01:57:52.169Z,98577.28
2023-05-11T02:00:20.060Z,98585.28
2023-05-11T02:02:49.309Z,98577.38
2023-05-11T02:05:21.083Z,98576.53
2023-05-11T02:07:54.482Z,98529.19
2023-05-11T02:10:25.723Z,98587.22
2023-05-11T02:12:54.143Z,98592.59
2023-05-11T02:15:22.946Z,98591.59
2023-05-11T02:17:51.531Z,98589.91
2023-05-11T02:20:20.501Z,98577.78
2023-05-11T02:22:49.308Z,98582.50
2023-05-11T02:25:17.271Z,98576.66
2023-05-11T02:27:44.362Z,98581.69
2023-05-11T02:30:13.117Z,98585.19
2023-05-11T02:32:47.902Z,98589.75
2023-05-11T02:35:19.032Z,98567.53
2023-05-11T02:37:47.841Z,98574.59
2023-05-11T02:40:19.141Z,98590.22
2023-05-11T02:42:51.595Z,98577.63
2023-05-11T02:45:20.310Z,98582.81
2023-05-11T02:47:54.290Z,98582.16
2023-05-11T02:50:24.642Z,98582.53
2023-05-11T02:52:56.054Z,98582.09
2023-05-11T02:55:24.371Z,98582.94
2023-05-11T02:57:51.973Z,98583.13
2023-05-11T03:00:19.318Z,98585.13
2023-05-11T03:02:46.621Z,98593.84
2023-05-11T03:05:13.593Z,98591.34
2023-05-11T03:07:40.811Z,98590.34
2023-05-11T03:10:08.685Z,98588.44
2023-05-11T03:12:35.964Z,98591.63
2023-05-11T03:15:04.697Z,98588.78
2023-05-11T03:17:32.275Z,98585.13
2023-05-11T03:20:03.719Z,98589.41
2023-05-11T03:22:32.012Z,98588.06
2023-05-11T03:25:00.865Z,98587.00
2023-05-11T03:27:28.321Z,98590.69
2023-05-11T03:29:57.387Z,98583.97
2023-05-11T03:32:24.673Z,98589.28
2023-05-11T03:34:52.437Z,98588.91
2023-05-11T03:37:21.077Z,98576.75
2023-05-11T03:39:51.513Z,98561.63
2023-05-11T03:42:19.717Z,98581.28
2023-05-11T03:44:47.837Z,98581.91
2023-05-11T03:47:16.578Z,98581.16
2023-05-11T03:49:44.337Z,98588.34
2023-05-11T03:52:11.923Z,98586.50
2023-05-11T03:54:39.154Z,98575.78
2023-05-11T03:57:06.276Z,98593.00
2023-05-11T03:59:33.244Z,98561.22
2023-05-11T04:02:01.675Z,98543.28
2023-05-11T04:04:30.983Z,98575.81
2023-05-11T04:06:59.413Z,98593.56
2023-05-11T04:09:26.441Z,98586.78
2023-05-11T04:11:53.682Z,98598.69
2023-05-11T04:14:23.589Z,98575.81
2023-05-11T04:16:50.535Z,98600.38
2023-05-11T04:19:17.464Z,98594.59
2023-05-11T04:21:44.997Z,98590.44
2023-05-11T04:24:12.074Z,98595.16
2023-05-11T04:26:38.972Z,98598.50
2023-05-11T04:29:05.983Z,98592.03
2023-05-11T04:31:32.989Z,98603.09
2023-05-11T04:33:59.898Z,98603.63
2023-05-11T04:36:26.828Z,98600.50
2023-05-11T04:38:53.728Z,98603.81
2023-05-11T04:41:21.044Z,98603.94
2023-05-11T04:43:47.936Z,98609.06
2023-05-11T04:46:15.590Z,98603.78
2023-05-11T04:48:42.547Z,98606.75
2023-05-11T04:51:10.245Z,98593.88
2023-05-11T04:53:37.204Z,98600.84
2023-05-11T04:56:04.249Z,98603.38
2023-05-11T04:58:31.203Z,98595.91
2023-05-11T05:00:58.199Z,98585.38
2023-05-11T05:03:26.044Z,98598.63
2023-05-11T05:05:52.971Z,98603.66
2023-05-11T05:08:20.532Z,98604.56
2023-05-11T05:10:48.438Z,98601.94
2023-05-11T05:13:17.098Z,98601.59
2023-05-11T05:15:44.209Z,98595.78
2023-05-11T05:18:11.205Z,98596.09
2023-05-11T05:20:38.139Z,98590.78
2023-05-11T05:23:05.876Z,98599.66
2023-05-11T05:25:32.799Z,98595.88
2023-05-11T05:27:59.749Z,98604.53
2023-05-11T05:30:26.825Z,98602.06
2023-05-11T05:32:55.298Z,98592.34
2023-05-11T05:35:22.698Z,98602.88
2023-05-11T05:37:49.611Z,98602.47
2023-05-11T05:40:16.846Z,98594.34
2023-05-11T05:42:44.193Z,98588.63
2023-05-11T05:45:13.182Z,98590.56
2023-05-11T05:47:42.122Z,98590.13
2023-05-11T05:50:09.600Z,98582.63
2023-05-11T05:52:36.558Z,98605.16
2023-05-11T05:55:03.652Z,98599.19
2023-05-11T05:57:30.908Z,98595.78
2023-05-11T05:59:57.863Z,98605.03
2023-05-11T06:02:24.911Z,98603.75
2023-05-11T06:04:51.956Z,98593.88
2023-05-11T06:07:18.954Z,98601.69
2023-05-11T06:09:45.930Z,98601.75
2023-05-11T06:12:12.949Z,98598.84
2023-05-11T06:14:41.573Z,98594.09
2023-05-11T06:17:08.510Z,98603.94
2023-05-11T06:19:35.518Z,98602.50
2023-05-11T06:22:04.365Z,98602.72
2023-05-11T06:24:33.449Z,98599.91
2023-05-11T06:27:00.351Z,98594.47
2023-05-11T06:29:27.423Z,98601.59
2023-05-11T06:31:56.159Z,98609.81
2023-05-11T06:34:23.224Z,98599.47
2023-05-11T06:36:50.215Z,98605.91
2023-05-11T06:39:17.110Z,98607.72
2023-05-11T06:41:44.705Z,98601.91
2023-05-11T06:44:13.272Z,98597.53
2023-05-11T06:46:40.233Z,98603.13
2023-05-11T06:49:09.014Z,98600.41
2023-05-11T06:51:36.029Z,98579.50
2023-05-11T06:54:03.066Z,98595.22
2023-05-11T06:56:32.064Z,98605.41
2023-05-11T06:58:59.088Z,98603.84
2023-05-11T07:01:26.230Z,98602.19
2023-05-11T07:03:55.759Z,98595.81
2023-05-11T07:06:22.845Z,98580.69
2023-05-11T07:08:49.802Z,98598.84
2023-05-11T07:11:17.025Z,98587.22
2023-05-11T07:13:45.530Z,98592.78
2023-05-11T07:16:13.150Z,98592.03
2023-05-11T07:18:40.191Z,98592.63
2023-05-11T07:21:07.293Z,98594.47
2023-05-11T07:23:34.169Z,98597.75
2023-05-11T07:26:02.071Z,98590.72
2023-05-11T07:28:28.940Z,98585.47
2023-05-11T07:30:56.055Z,98590.22
2023-05-11T07:33:23.006Z,98581.53
2023-05-11T07:35:52.020Z,98590.41
2023-05-11T07:38:19.152Z,98588.88
2023-05-11T07:40:46.087Z,98589.28
2023-05-11T07:43:13.102Z,98589.00
2023-05-11T07:45:40.495Z,98580.84
2023-05-11T07:48:07.977Z,98587.13
2023-05-11T07:50:35.134Z,98583.41
2023-05-11T07:53:03.136Z,98560.81
2023-05-11T07:55:30.846Z,98583.63
2023-05-11T07:57:57.766Z,98577.94
2023-05-11T08:00:24.870Z,98578.78
2023-05-11T08:02:51.990Z,98580.44
2023-05-11T08:05:20.355Z,98583.09
2023-05-11T08:07:47.628Z,98573.94
2023-05-11T08:10:14.562Z,98573.78
2023-05-11T08:12:41.570Z,98543.06
2023-05-11T08:15:09.336Z,98570.72
2023-05-11T08:17:36.841Z,98578.03
2023-05-11T08:20:05.154Z,98570.25
2023-05-11T08:22:32.347Z,98572.09
2023-05-11T08:24:59.229Z,98533.28
2023-05-11T08:27:26.135Z,98570.53
2023-05-11T08:29:53.088Z,98562.94
2023-05-11T08:32:20.098Z,98565.84
2023-05-11T08:34:47.271Z,98563.84
2023-05-11T08:37:14.371Z,98564.28
2023-05-11T08:39:47.105Z,98563.63
2023-05-11T08:42:16.917Z,98573.63
2023-05-11T08:44:45.063Z,98565.66
2023-05-11T08:49:42.392Z,98563.44
2023-05-11T08:52:11.070Z,98569.78
2023-05-11T08:54:38.480Z,98566.84
2023-05-11T08:57:07.327Z,98551.88
2023-05-11T08:59:34.628Z,98559.97
2023-05-11T09:02:02.509Z,98556.63
2023-05-11T09:04:30.761Z,98556.72
2023-05-11T09:06:58.749Z,98554.97
2023-05-11T09:09:25.831Z,98561.31
2023-05-11T09:11:54.476Z,98563.91
2023-05-11T09:14:27.056Z,98549.66
2023-05-11T09:16:54.520Z,98558.75
2023-05-11T09:19:22.089Z,98555.59
2023-05-11T09:21:51.134Z,98558.91
2023-05-11T09:24:21.048Z,98561.66
2023-05-11T09:26:48.288Z,98558.97
2023-05-11T09:29:19.575Z,98558.63
2023-05-11T09:31:50.343Z,98548.44
2023-05-11T09:34:22.302Z,98561.16
2023-05-11T09:36:54.182Z,98557.47
2023-05-11T09:39:40.006Z,98521.91
2023-05-11T09:42:19.191Z,98550.53
2023-05-11T09:44:47.429Z,98535.13
2023-05-11T09:47:16.228Z,98541.91
2023-05-11T09:49:44.866Z,98549.34
2023-05-11T09:52:21.507Z,98537.19
2023-05-11T09:54:51.209Z,98546.06
2023-05-11T09:57:29.939Z,98541.47
2023-05-11T09:59:58.701Z,98513.41
2023-05-11T10:02:31.369Z,98532.22
2023-05-11T10:05:01.612Z,98540.34
2023-05-11T10:07:34.063Z,98536.97
2023-05-11T10:10:09.327Z,98529.84
2023-05-11T10:12:39.545Z,98510.56
2023-05-11T10:15:08.564Z,98530.41
2023-05-11T10:17:37.181Z,98535.97
2023-05-11T10:20:06.848Z,98536.25
2023-05-11T10:22:34.123Z,98527.66
2023-05-11T10:25:01.792Z,98516.84
2023-05-11T10:27:29.002Z,98528.25
2023-05-11T10:29:58.559Z,98520.66
2023-05-11T10:32:25.715Z,98522.56
2023-05-11T10:34:52.845Z,98517.56
2023-05-11T10:37:21.442Z,98531.56
2023-05-11T10:39:50.713Z,98524.09
2023-05-11T10:42:39.546Z,98516.09
2023-05-11T10:45:07.105Z,98515.59
2023-05-11T10:48:10.531Z,98515.63
2023-05-11T10:51:14.698Z,98516.47
2023-05-11T10:54:20.996Z,98513.94
2023-05-11T10:57:12.568Z,98513.69
2023-05-11T10:59:45.502Z,98512.91
2023-05-11T11:02:12.819Z,98483.50
2023-05-11T11:04:47.187Z,98511.34
2023-05-11T11:07:21.220Z,98502.75
2023-05-11T11:10:06.577Z,98498.16
2023-05-11T11:12:36.813Z,98483.31
2023-05-11T11:15:07.743Z,98494.59
2023-05-11T11:17:36.104Z,98480.47
2023-05-11T11:20:08.772Z,98481.28
2023-05-11T11:22:38.842Z,98491.75
2023-05-11T11:25:07.224Z,98480.53
2023-05-11T11:27:46.211Z,98481.66
2023-05-11T11:30:21.893Z,98494.00
2023-05-11T11:33:07.357Z,98489.19
2023-05-11T11:35:40.894Z,98495.91
2023-05-11T11:38:09.839Z,98489.53
2023-05-11T11:40:50.492Z,98493.41
2023-05-11T11:43:26.396Z,98496.84
2023-05-11T11:45:57.111Z,98495.22
2023-05-11T11:48:31.197Z,98495.22
2023-05-11T11:51:05.010Z,98489.53
2023-05-11T11:53:38.226Z,98485.66
2023-05-11T11:56:07.746Z,98494.44
2023-05-11T11:58:43.745Z,98483.84
2023-05-11T12:01:13.647Z,98482.47
2023-05-11T12:03:42.296Z,98472.59
2023-05-11T12:06:11.205Z,98477.53
2023-05-11T12:08:39.761Z,98479.19
2023-05-11T12:11:07.516Z,98483.88
2023-05-11T12:13:35.848Z,98476.16
2023-05-11T12:16:10.664Z,98476.69
2023-05-11T12:18:37.860Z,98483.84
2023-05-11T12:21:04.997Z,98481.38
2023-05-11T12:23:32.549Z,98472.28
2023-05-11T12:26:04.068Z,98475.59
2023-05-11T12:28:31.269Z,98462.09
2023-05-11T12:31:00.389Z,98473.69
2023-05-11T12:33:27.803Z,98469.53
2023-05-11T12:35:56.658Z,98452.50
2023-05-11T12:38:23.662Z,98465.41
2023-05-11T12:40:53.437Z,98456.88
2023-05-11T12:43:22.172Z,98460.16
2023-05-11T12:45:49.661Z,98462.31
2023-05-11T12:48:16.979Z,98455.22
2023-05-11T12:50:47.280Z,98457.72
2023-05-11T12:53:19.354Z,98452.47
2023-05-11T12:55:57.562Z,98448.63
2023-05-11T12:58:24.624Z,98448.06
2023-05-11T13:00:58.998Z,98449.75
2023-05-11T13:03:28.661Z,98432.69
2023-05-11T13:06:09.324Z,98421.59
2023-05-11T13:08:44.667Z,98434.44
2023-05-11T13:11:23.350Z,98430.97
2023-05-11T13:13:51.480Z,98427.66
2023-05-11T13:16:29.539Z,98433.03
2023-05-11T13:19:05.302Z,98429.22
2023-05-11T13:21:33.770Z,98422.38
2023-05-11T13:24:04.065Z,98415.50
2023-05-11T13:26:32.295Z,98413.84
2023-05-11T13:29:10.137Z,98423.25
2023-05-11T13:31:45.624Z,98414.72
2023-05-11T13:34:12.608Z,98419.72
2023-05-11T13:36:40.064Z,98409.66
2023-05-11T13:39:07.612Z,98420.75
2023-05-11T13:41:34.608Z,98387.91
2023-05-11T13:44:01.641Z,98407.53
2023-05-11T13:46:29.385Z,98400.41
2023-05-11T13:48:56.571Z,98383.66
2023-05-11T13:51:23.578Z,98399.94
2023-05-11T13:53:50.499Z,98404.28
2023-05-11T13:56:19.756Z,98390.81
2023-05-11T13:58:46.677Z,98401.78
2023-05-11T14:01:13.714Z,98385.91
2023-05-11T14:03:40.633Z,98397.41
2023-05-11T14:06:07.913Z,98396.91
2023-05-11T14:08:34.874Z,98394.13
2023-05-11T14:11:01.914Z,98390.75
2023-05-11T14:13:28.835Z,98396.81
2023-05-11T14:15:55.865Z,98399.53
2023-05-11T14:18:25.104Z,98396.84
2023-05-11T14:20:52.240Z,98392.19
2023-05-11T14:23:19.188Z,98392.25
2023-05-11T14:25:46.183Z,98391.84
2023-05-11T14:28:13.122Z,98391.41
2023-05-11T14:30:41.460Z,98386.97
2023-05-11T14:33:08.459Z,98388.97
2023-05-11T14:35:37.734Z,98383.88
2023-05-11T14:38:06.615Z,98377.72
2023-05-11T14:40:33.723Z,98377.00
2023-05-11T14:43:00.795Z,98376.47
2023-05-11T14:45:28.296Z,98372.66
2023-05-11T14:47:55.695Z,98374.59
2023-05-11T14:50:22.641Z,98375.94
2023-05-11T14:52:49.665Z,98379.50
2023-05-11T14:55:16.940Z,98373.16
2023-05-11T14:57:44.067Z,98370.97
2023-05-11T15:00:13.078Z,98374.78
2023-05-11T15:02:40.110Z,98381.13
2023-05-11T15:05:07.769Z,98371.25
2023-05-11T15:07:35.378Z,98374.00
2023-05-11T15:10:03.109Z,98374.53
2023-05-11T15:12:30.532Z,98372.66
2023-05-11T15:14:57.447Z,98374.28
2023-05-11T15:17:24.504Z,98374.53
2023-05-11T15:19:51.447Z,98368.78
2023-05-11T15:22:19.461Z,98366.06
2023-05-11T15:24:46.416Z,98374.84
2023-05-11T15:27:13.524Z,98380.28
2023-05-11T15:29:40.869Z,98374.66
2023-05-11T15:32:08.167Z,98375.47
2023-05-11T15:34:41.755Z,98314.75
2023-05-11T15:37:18.102Z,98383.13
2023-05-11T15:39:44.989Z,98378.06
2023-05-11T15:42:11.893Z,98379.44
2023-05-11T15:44:38.822Z,98382.56
2023-05-11T15:47:06.367Z,98375.59
2023-05-11T15:49:33.610Z,98367.84
2023-05-11T15:52:00.649Z,98380.06
2023-05-11T15:54:28.023Z,98372.59
2023-05-11T15:56:55.029Z,98371.72
2023-05-11T15:59:21.969Z,98378.94
2023-05-11T16:01:48.922Z,98382.44
2023-05-11T16:04:15.997Z,98374.13
2023-05-11T16:06:43.247Z,98391.97
2023-05-11T16:09:10.388Z,98371.44
2023-05-11T16:11:37.748Z,98378.69
2023-05-11T16:14:04.814Z,98386.97
2023-05-11T16:16:31.966Z,98381.59
2023-05-11T16:18:59.801Z,98384.00
2023-05-11T16:21:27.434Z,98388.81
2023-05-11T16:23:55.447Z,98213.63
2023-05-11T16:26:23.427Z,98391.00
2023-05-11T16:28:50.447Z,98381.38
2023-05-11T16:31:17.491Z,98385.00
2023-05-11T16:33:44.451Z,98396.22
2023-05-11T16:36:11.734Z,98388.53
2023-05-11T16:38:39.265Z,98393.16
2023-05-11T16:41:06.215Z,98394.06
2023-05-11T16:43:33.307Z,98396.34
2023-05-11T16:46:01.659Z,98385.38
2023-05-11T16:48:28.784Z,98398.34
2023-05-11T16:50:56.098Z,98401.69
2023-05-11T16:53:27.393Z,98406.66
2023-05-11T16:55:55.573Z,98404.94
2023-05-11T16:58:24.261Z,98380.31
2023-05-11T17:00:52.187Z,98399.00
2023-05-11T17:03:21.297Z,98419.84
2023-05-11T17:05:48.937Z,98397.81
2023-05-11T17:08:15.908Z,98410.88
2023-05-11T17:10:42.985Z,98413.34
2023-05-11T17:13:09.955Z,98416.34
2023-05-11T17:15:37.023Z,98420.94
2023-05-11T17:18:05.314Z,98427.66
2023-05-11T17:20:32.944Z,98412.38
2023-05-11T17:22:59.860Z,98422.44
2023-05-11T17:25:26.907Z,98422.75
2023-05-11T17:27:53.856Z,98425.41
2023-05-11T17:30:22.181Z,98428.41
2023-05-11T17:32:52.409Z,98415.31
2023-05-11T17:35:19.405Z,98422.44
2023-05-11T17:37:46.454Z,98430.19
2023-05-11T17:40:13.499Z,98422.06
2023-05-11T17:42:40.661Z,98435.22
2023-05-11T17:45:08.313Z,98433.56
2023-05-11T17:47:39.697Z,98431.25
2023-05-11T17:50:07.418Z,98433.91
2023-05-11T17:52:34.499Z,98402.84
2023-05-11T17:55:02.952Z,98440.06
2023-05-11T17:57:29.899Z,98439.13
2023-05-11T17:59:56.876Z,98442.16
2023-05-11T18:02:23.978Z,98444.56
2023-05-11T18:04:51.151Z,98443.50
2023-05-11T18:07:18.332Z,98449.25
2023-05-11T18:09:45.281Z,98459.44
2023-05-11T18:12:12.206Z,98463.88
2023-05-11T18:14:39.162Z,98464.22
2023-05-11T18:17:06.128Z,98466.75
2023-05-11T18:19:33.041Z,98434.16
2023-05-11T18:22:00.781Z,98473.28
2023-05-11T18:24:27.697Z,98477.91
2023-05-11T18:26:54.625Z,98481.81
2023-05-11T18:29:22.574Z,98460.00
2023-05-11T18:31:49.867Z,98483.59
2023-05-11T18:34:16.797Z,98477.88
2023-05-11T18:36:44.016Z,98482.00
2023-05-11T18:39:11.717Z,98488.50
2023-05-11T18:41:38.749Z,98483.16
2023-05-11T18:44:05.835Z,98482.69
2023-05-11T18:46:32.955Z,98487.72
2023-05-11T18:49:00.000Z,98493.28
2023-05-11T18:51:26.933Z,98491.84
2023-05-11T18:53:53.897Z,98495.28
2023-05-11T18:56:22.540Z,98497.28
2023-05-11T18:58:50.611Z,98507.28
2023-05-11T19:01:18.272Z,98512.34
2023-05-11T19:03:45.350Z,98511.94
2023-05-11T19:06:12.360Z,98508.38
2023-05-11T19:08:39.300Z,98522.06
2023-05-11T19:11:10.774Z,98526.06
2023-05-11T19:13:37.987Z,98520.69
2023-05-11T19:16:05.358Z,98525.41
2023-05-11T19:18:35.696Z,98529.22
2023-05-11T19:21:05.201Z,98534.69
2023-05-11T19:23:33.499Z,98527.03
2023-05-11T19:26:00.751Z,98535.03
2023-05-11T19:28:27.798Z,98533.22
2023-05-11T19:31:02.365Z,98533.28
2023-05-11T19:33:30.625Z,98540.50
2023-05-11T19:35:57.959Z,98540.59
2023-05-11T19:38:25.539Z,98548.13
2023-05-11T19:40:52.768Z,98543.59
2023-05-11T19:43:19.887Z,98535.28
2023-05-11T19:45:46.850Z,98531.00
2023-05-11T19:48:14.125Z,98551.69
2023-05-11T19:50:41.867Z,98549.56
2023-05-11T19:53:08.926Z,98544.13
2023-05-11T19:55:35.821Z,98546.28
2023-05-11T19:58:02.903Z,98534.28
2023-05-11T20:00:29.909Z,98550.59
2023-05-11T20:02:57.533Z,98542.72
2023-05-11T20:05:24.781Z,98549.88
2023-05-11T20:07:51.809Z,98544.88
2023-05-11T20:10:18.900Z,98543.66
2023-05-11T20:12:46.124Z,98558.69
2023-05-11T20:15:13.169Z,98551.22
2023-05-11T20:17:40.246Z,98547.09
2023-05-11T20:20:08.817Z,98556.72
2023-05-11T20:22:37.037Z,98552.41
2023-05-11T20:25:09.624Z,98547.00
2023-05-11T20:27:43.852Z,98553.31
2023-05-11T20:30:11.511Z,98550.41
2023-05-11T20:32:38.538Z,98532.91
2023-05-11T20:35:06.167Z,98540.00
2023-05-11T20:37:33.163Z,98547.28
2023-05-11T20:40:00.241Z,98544.84
2023-05-11T20:42:27.616Z,98551.50
2023-05-11T20:44:54.574Z,98548.59
2023-05-11T20:47:21.581Z,98553.41
2023-05-11T20:49:48.510Z,98550.09
2023-05-11T20:52:15.505Z,98548.44
2023-05-11T20:54:42.530Z,98557.59
2023-05-11T20:57:09.888Z,98552.81
2023-05-11T21:02:06.852Z,98559.06
2023-05-11T21:04:34.224Z,98555.56
2023-05-11T21:07:01.178Z,98549.91
2023-05-11T21:09:28.062Z,98505.56
2023-05-11T21:11:55.020Z,98553.69
2023-05-11T21:14:21.967Z,98551.81
2023-05-11T21:16:49.052Z,98552.84
2023-05-11T21:19:18.655Z,98552.66
2023-05-11T21:21:46.081Z,98552.03
2023-05-11T21:24:14.243Z,98551.41
2023-05-11T21:26:41.294Z,98556.44
2023-05-11T21:29:08.552Z,98564.56
2023-05-11T21:31:35.493Z,98561.84
2023-05-11T21:34:02.622Z,98561.19
2023-05-11T21:36:29.587Z,98562.84
2023-05-11T21:38:56.564Z,98565.38
2023-05-11T21:41:23.484Z,98536.41
2023-05-11T21:43:50.884Z,98559.53
2023-05-11T21:46:17.930Z,98517.47
2023-05-11T21:48:44.936Z,98558.69
2023-05-11T21:51:11.889Z,98561.00
2023-05-11T21:53:38.980Z,98551.41
2023-05-11T21:56:05.996Z,98561.84
2023-05-11T21:58:32.925Z,98562.44
2023-05-11T22:00:59.987Z,98555.78
2023-05-11T22:03:30.186Z,98555.19
2023-05-11T22:05:57.792Z,98564.13
2023-05-11T22:08:24.754Z,98558.31
2023-05-11T22:10:51.714Z,98556.63
2023-05-11T22:13:18.724Z,98559.72
2023-05-11T22:15:45.637Z,98566.03
2023-05-11T22:18:12.528Z,98558.25
2023-05-11T22:20:39.701Z,98563.94
2023-05-11T22:23:06.665Z,98559.97
2023-05-11T22:25:33.947Z,98568.88
2023-05-11T22:28:01.042Z,98562.66
2023-05-11T22:30:27.922Z,98565.78
2023-05-11T22:32:54.872Z,98562.66
2023-05-11T22:35:23.008Z,98558.69
2023-05-11T22:37:50.002Z,98564.09
2023-05-11T22:40:17.273Z,98566.59
2023-05-11T22:42:44.309Z,98566.41
2023-05-11T22:45:11.668Z,98561.78
2023-05-11T22:47:38.565Z,98569.50
2023-05-11T22:50:08.716Z,98563.63
2023-05-11T22:52:36.594Z,98575.28
2023-05-11T22:55:04.307Z,98562.13
2023-05-11T22:57:31.327Z,98565.47
2023-05-11T22:59:58.353Z,98556.09
2023-05-11T23:02:25.397Z,98558.59
2023-05-11T23:04:53.252Z,98557.28
2023-05-11T23:07:20.377Z,98558.97
2023-05-11T23:09:47.859Z,98571.88
2023-05-11T23:12:14.763Z,98549.78
2023-05-11T23:14:42.052Z,98551.47
2023-05-11T23:17:09.404Z,98555.56
2023-05-11T23:19:36.758Z,98553.28
2023-05-11T23:22:03.839Z,98552.66
2023-05-11T23:24:30.768Z,98552.03
2023-05-11T23:26:57.684Z,98556.41
2023-05-11T23:29:24.769Z,98566.19
2023-05-11T23:31:51.855Z,98562.84
2023-05-11T23:34:19.152Z,98571.75
2023-05-11T23:36:46.902Z,98576.72
2023-05-11T23:39:14.047Z,98576.81
2023-05-11T23:41:40.991Z,98574.25
2023-05-11T23:44:07.900Z,98575.16
2023-05-11T23:46:34.974Z,98582.41
2023-05-11T23:49:02.189Z,98578.66
2023-05-11T23:51:29.138Z,98587.13
2023-05-11T23:53:56.687Z,98584.44
2023-05-11T23:56:23.546Z,98584.84
2023-05-11T23:58:50.908Z,98587.03
